Canning, South Dakota
Current Conditions -  °F | °C
As of 11:53 PM on Wednesday 26 Nov 2014 (Local Time) from KPIR Reporting Station
Overcast Overcast  
Wind Chill:   Ceiling: 3300
Heat Index: 13°   Visibility: 10mi
Dew Point:   Wind: 7mph
Humidity: 77%   Direction: 100°E
Pressure: 30.44"   Gusts: NA
Location:  44.3693°N, 100.04°W
Report Text: KPIR 270553Z AUTO 10006KT 10SM OVC033 M11/M14 A3044 RMK AO2 SLP339 60000 T11061139 11083 21106 400111106 51009
Loading
Personal Weather Stations






























Interactive Weather Map New forecast layout! Learn more

10-Day Weather Forecast

Advertisements
Track Severe Weather on mobile